sensor_id;sensor_type;location;lat;lon;timestamp;P1;durP1;ratioP1;P2;durP2;ratioP2
17235;SDS011;8734;59.272;17.780;2023-04-24T00:02:24;11.73;;;6.23;;
17235;SDS011;8734;59.272;17.780;2023-04-24T00:04:53;13.57;;;6.57;;
17235;SDS011;8734;59.272;17.780;2023-04-24T00:07:21;19.23;;;6.57;;
17235;SDS011;8734;59.272;17.780;2023-04-24T00:09:51;12.53;;;5.37;;
17235;SDS011;8734;59.272;17.780;2023-04-24T00:12:19;21.07;;;6.13;;
17235;SDS011;8734;59.272;17.780;2023-04-24T00:14:47;11.27;;;5.93;;
17235;SDS011;8734;59.272;17.780;2023-04-24T00:17:16;15.33;;;5.73;;
17235;SDS011;8734;59.272;17.780;2023-04-24T00:19:46;15.87;;;6.00;;
17235;SDS011;8734;59.272;17.780;2023-04-24T00:22:14;13.90;;;6.37;;
17235;SDS011;8734;59.272;17.780;2023-04-24T00:24:43;23.27;;;6.73;;
17235;SDS011;8734;59.272;17.780;2023-04-24T00:27:12;19.53;;;6.33;;
17235;SDS011;8734;59.272;17.780;2023-04-24T00:29:41;14.73;;;6.63;;
17235;SDS011;8734;59.272;17.780;2023-04-24T00:32:10;19.07;;;6.80;;
17235;SDS011;8734;59.272;17.780;2023-04-24T00:34:38;25.17;;;6.33;;
17235;SDS011;8734;59.272;17.780;2023-04-24T00:37:07;14.83;;;5.83;;
17235;SDS011;8734;59.272;17.780;2023-04-24T00:39:35;16.10;;;7.10;;
17235;SDS011;8734;59.272;17.780;2023-04-24T00:42:03;16.77;;;7.13;;
17235;SDS011;8734;59.272;17.780;2023-04-24T00:44:34;30.60;;;7.87;;
17235;SDS011;8734;59.272;17.780;2023-04-24T00:47:03;19.63;;;8.03;;
17235;SDS011;8734;59.272;17.780;2023-04-24T00:49:32;23.80;;;6.93;;
17235;SDS011;8734;59.272;17.780;2023-04-24T00:52:00;24.03;;;6.83;;
17235;SDS011;8734;59.272;17.780;2023-04-24T00:54:28;15.73;;;6.83;;
17235;SDS011;8734;59.272;17.780;2023-04-24T00:56:57;19.43;;;6.67;;
17235;SDS011;8734;59.272;17.780;2023-04-24T00:59:26;22.93;;;7.73;;
17235;SDS011;8734;59.272;17.780;2023-04-24T01:01:56;19.53;;;7.07;;
17235;SDS011;8734;59.272;17.780;2023-04-24T01:04:26;26.23;;;8.10;;
17235;SDS011;8734;59.272;17.780;2023-04-24T01:06:54;21.40;;;6.53;;
17235;SDS011;8734;59.272;17.780;2023-04-24T01:09:24;22.10;;;7.23;;
17235;SDS011;8734;59.272;17.780;2023-04-24T01:11:53;23.60;;;6.77;;
17235;SDS011;8734;59.272;17.780;2023-04-24T01:14:23;13.23;;;5.83;;
17235;SDS011;8734;59.272;17.780;2023-04-24T01:16:51;28.20;;;7.00;;
17235;SDS011;8734;59.272;17.780;2023-04-24T01:19:20;23.23;;;7.43;;
17235;SDS011;8734;59.272;17.780;2023-04-24T01:21:50;26.20;;;6.07;;
17235;SDS011;8734;59.272;17.780;2023-04-24T01:24:22;26.17;;;6.63;;
17235;SDS011;8734;59.272;17.780;2023-04-24T01:26:50;19.67;;;6.70;;
17235;SDS011;8734;59.272;17.780;2023-04-24T01:29:19;24.10;;;7.10;;
17235;SDS011;8734;59.272;17.780;2023-04-24T01:31:47;24.67;;;7.17;;
17235;SDS011;8734;59.272;17.780;2023-04-24T01:34:16;24.03;;;6.37;;
17235;SDS011;8734;59.272;17.780;2023-04-24T01:36:45;18.10;;;6.00;;
17235;SDS011;8734;59.272;17.780;2023-04-24T01:39:13;21.30;;;6.60;;
17235;SDS011;8734;59.272;17.780;2023-04-24T01:41:44;19.03;;;5.67;;
17235;SDS011;8734;59.272;17.780;2023-04-24T01:44:13;22.70;;;5.33;;
17235;SDS011;8734;59.272;17.780;2023-04-24T01:46:41;25.07;;;5.93;;
17235;SDS011;8734;59.272;17.780;2023-04-24T01:49:10;22.47;;;6.63;;
17235;SDS011;8734;59.272;17.780;2023-04-24T01:51:39;23.33;;;6.37;;
17235;SDS011;8734;59.272;17.780;2023-04-24T01:54:07;19.13;;;6.23;;
17235;SDS011;8734;59.272;17.780;2023-04-24T01:56:36;30.13;;;6.60;;
17235;SDS011;8734;59.272;17.780;2023-04-24T01:59:10;21.83;;;5.03;;
17235;SDS011;8734;59.272;17.780;2023-04-24T02:01:40;22.53;;;6.00;;
17235;SDS011;8734;59.272;17.780;2023-04-24T02:04:08;26.23;;;5.03;;
17235;SDS011;8734;59.272;17.780;2023-04-24T02:06:36;20.23;;;4.63;;
17235;SDS011;8734;59.272;17.780;2023-04-24T02:09:05;30.87;;;5.70;;
17235;SDS011;8734;59.272;17.780;2023-04-24T02:11:34;32.80;;;4.93;;
17235;SDS011;8734;59.272;17.780;2023-04-24T02:14:02;20.10;;;5.53;;
17235;SDS011;8734;59.272;17.780;2023-04-24T02:16:32;31.27;;;5.57;;
17235;SDS011;8734;59.272;17.780;2023-04-24T02:19:02;24.70;;;6.03;;
17235;SDS011;8734;59.272;17.780;2023-04-24T02:21:30;37.40;;;6.30;;
17235;SDS011;8734;59.272;17.780;2023-04-24T02:24:00;18.90;;;5.50;;
17235;SDS011;8734;59.272;17.780;2023-04-24T02:26:28;40.73;;;6.47;;
17235;SDS011;8734;59.272;17.780;2023-04-24T02:28:58;22.30;;;5.97;;
17235;SDS011;8734;59.272;17.780;2023-04-24T02:31:26;31.57;;;6.97;;
17235;SDS011;8734;59.272;17.780;2023-04-24T02:33:56;41.03;;;6.67;;
17235;SDS011;8734;59.272;17.780;2023-04-24T02:36:25;20.27;;;5.47;;
17235;SDS011;8734;59.272;17.780;2023-04-24T02:38:54;21.67;;;4.87;;
17235;SDS011;8734;59.272;17.780;2023-04-24T02:41:22;28.23;;;6.37;;
17235;SDS011;8734;59.272;17.780;2023-04-24T02:43:51;24.73;;;5.30;;
17235;SDS011;8734;59.272;17.780;2023-04-24T02:46:20;30.87;;;5.80;;
17235;SDS011;8734;59.272;17.780;2023-04-24T02:48:48;27.03;;;5.50;;
17235;SDS011;8734;59.272;17.780;2023-04-24T02:51:18;26.70;;;6.33;;
17235;SDS011;8734;59.272;17.780;2023-04-24T02:53:47;46.17;;;5.90;;
17235;SDS011;8734;59.272;17.780;2023-04-24T02:56:15;38.93;;;6.87;;
17235;SDS011;8734;59.272;17.780;2023-04-24T02:58:43;32.30;;;6.50;;
17235;SDS011;8734;59.272;17.780;2023-04-24T03:01:12;45.93;;;7.40;;
17235;SDS011;8734;59.272;17.780;2023-04-24T03:03:41;32.40;;;6.20;;
17235;SDS011;8734;59.272;17.780;2023-04-24T03:06:09;42.40;;;7.70;;
17235;SDS011;8734;59.272;17.780;2023-04-24T03:08:40;26.70;;;6.63;;
17235;SDS011;8734;59.272;17.780;2023-04-24T03:11:08;46.57;;;8.00;;
17235;SDS011;8734;59.272;17.780;2023-04-24T03:13:36;37.37;;;7.23;;
17235;SDS011;8734;59.272;17.780;2023-04-24T03:16:05;40.87;;;7.70;;
17235;SDS011;8734;59.272;17.780;2023-04-24T03:18:34;36.17;;;8.13;;
17235;SDS011;8734;59.272;17.780;2023-04-24T03:21:02;35.43;;;7.80;;
17235;SDS011;8734;59.272;17.780;2023-04-24T03:23:31;40.63;;;8.03;;
17235;SDS011;8734;59.272;17.780;2023-04-24T03:26:01;38.20;;;8.17;;
17235;SDS011;8734;59.272;17.780;2023-04-24T03:28:29;31.70;;;8.63;;
17235;SDS011;8734;59.272;17.780;2023-04-24T03:30:57;31.33;;;7.60;;
17235;SDS011;8734;59.272;17.780;2023-04-24T03:33:26;35.63;;;7.80;;
17235;SDS011;8734;59.272;17.780;2023-04-24T03:35:54;36.37;;;8.03;;
17235;SDS011;8734;59.272;17.780;2023-04-24T03:38:23;40.63;;;7.47;;
17235;SDS011;8734;59.272;17.780;2023-04-24T03:40:51;34.27;;;7.40;;
17235;SDS011;8734;59.272;17.780;2023-04-24T03:43:21;30.77;;;8.03;;
17235;SDS011;8734;59.272;17.780;2023-04-24T03:45:50;21.57;;;7.17;;
17235;SDS011;8734;59.272;17.780;2023-04-24T03:48:18;25.77;;;8.10;;
17235;SDS011;8734;59.272;17.780;2023-04-24T03:50:47;41.60;;;7.90;;
17235;SDS011;8734;59.272;17.780;2023-04-24T03:53:16;23.93;;;7.43;;
17235;SDS011;8734;59.272;17.780;2023-04-24T03:55:46;29.20;;;7.67;;
17235;SDS011;8734;59.272;17.780;2023-04-24T03:58:14;25.83;;;7.73;;
17235;SDS011;8734;59.272;17.780;2023-04-24T04:00:44;30.00;;;7.40;;
17235;SDS011;8734;59.272;17.780;2023-04-24T04:03:14;19.43;;;7.10;;
17235;SDS011;8734;59.272;17.780;2023-04-24T04:05:43;23.17;;;8.03;;
17235;SDS011;8734;59.272;17.780;2023-04-24T04:08:11;19.60;;;8.13;;
17235;SDS011;8734;59.272;17.780;2023-04-24T04:10:40;23.73;;;6.80;;
17235;SDS011;8734;59.272;17.780;2023-04-24T04:13:08;24.27;;;7.17;;
17235;SDS011;8734;59.272;17.780;2023-04-24T04:15:36;21.43;;;7.97;;
17235;SDS011;8734;59.272;17.780;2023-04-24T04:18:06;28.33;;;8.20;;
17235;SDS011;8734;59.272;17.780;2023-04-24T04:20:35;22.93;;;8.20;;
17235;SDS011;8734;59.272;17.780;2023-04-24T04:23:03;25.03;;;8.10;;
17235;SDS011;8734;59.272;17.780;2023-04-24T04:25:31;27.70;;;8.83;;
17235;SDS011;8734;59.272;17.780;2023-04-24T04:28:00;25.43;;;7.93;;
17235;SDS011;8734;59.272;17.780;2023-04-24T04:30:29;40.40;;;10.63;;
17235;SDS011;8734;59.272;17.780;2023-04-24T04:32:58;34.33;;;10.43;;
17235;SDS011;8734;59.272;17.780;2023-04-24T04:35:29;31.60;;;10.17;;
17235;SDS011;8734;59.272;17.780;2023-04-24T04:37:57;37.67;;;9.43;;
17235;SDS011;8734;59.272;17.780;2023-04-24T04:40:26;41.00;;;11.33;;
17235;SDS011;8734;59.272;17.780;2023-04-24T04:42:56;42.03;;;10.77;;
17235;SDS011;8734;59.272;17.780;2023-04-24T04:45:24;41.43;;;9.57;;
17235;SDS011;8734;59.272;17.780;2023-04-24T04:47:54;43.77;;;9.13;;
17235;SDS011;8734;59.272;17.780;2023-04-24T04:50:23;33.23;;;7.53;;
17235;SDS011;8734;59.272;17.780;2023-04-24T04:52:53;31.53;;;8.10;;
17235;SDS011;8734;59.272;17.780;2023-04-24T04:55:22;42.03;;;8.10;;
17235;SDS011;8734;59.272;17.780;2023-04-24T04:57:50;36.40;;;7.97;;
17235;SDS011;8734;59.272;17.780;2023-04-24T05:00:19;36.27;;;8.27;;
17235;SDS011;8734;59.272;17.780;2023-04-24T05:02:47;39.40;;;9.47;;
17235;SDS011;8734;59.272;17.780;2023-04-24T05:05:16;28.50;;;7.73;;
17235;SDS011;8734;59.272;17.780;2023-04-24T05:07:45;40.80;;;9.60;;
17235;SDS011;8734;59.272;17.780;2023-04-24T05:10:14;32.47;;;8.33;;
17235;SDS011;8734;59.272;17.780;2023-04-24T05:12:42;28.20;;;6.60;;
17235;SDS011;8734;59.272;17.780;2023-04-24T05:15:11;33.77;;;8.70;;
17235;SDS011;8734;59.272;17.780;2023-04-24T05:17:40;38.03;;;7.43;;
17235;SDS011;8734;59.272;17.780;2023-04-24T05:20:08;38.20;;;7.23;;
17235;SDS011;8734;59.272;17.780;2023-04-24T05:22:37;38.03;;;7.97;;
17235;SDS011;8734;59.272;17.780;2023-04-24T05:25:05;40.60;;;8.13;;
17235;SDS011;8734;59.272;17.780;2023-04-24T05:27:36;35.90;;;9.10;;
17235;SDS011;8734;59.272;17.780;2023-04-24T05:30:04;30.77;;;8.93;;
17235;SDS011;8734;59.272;17.780;2023-04-24T05:32:34;37.47;;;8.30;;
17235;SDS011;8734;59.272;17.780;2023-04-24T05:35:02;32.37;;;8.57;;
17235;SDS011;8734;59.272;17.780;2023-04-24T05:37:30;35.83;;;8.90;;
17235;SDS011;8734;59.272;17.780;2023-04-24T05:39:59;36.20;;;9.80;;
17235;SDS011;8734;59.272;17.780;2023-04-24T05:44:57;38.13;;;8.80;;
17235;SDS011;8734;59.272;17.780;2023-04-24T05:47:25;40.77;;;9.63;;
17235;SDS011;8734;59.272;17.780;2023-04-24T05:49:54;32.90;;;8.67;;
17235;SDS011;8734;59.272;17.780;2023-04-24T05:52:22;27.20;;;8.00;;
17235;SDS011;8734;59.272;17.780;2023-04-24T05:54:50;37.23;;;9.03;;
17235;SDS011;8734;59.272;17.780;2023-04-24T05:57:19;36.50;;;8.57;;
17235;SDS011;8734;59.272;17.780;2023-04-24T05:59:48;29.23;;;9.10;;
17235;SDS011;8734;59.272;17.780;2023-04-24T06:02:17;34.50;;;8.40;;
17235;SDS011;8734;59.272;17.780;2023-04-24T06:04:46;31.10;;;8.03;;
17235;SDS011;8734;59.272;17.780;2023-04-24T06:07:15;32.17;;;9.20;;
17235;SDS011;8734;59.272;17.780;2023-04-24T06:09:43;30.17;;;8.87;;
17235;SDS011;8734;59.272;17.780;2023-04-24T06:12:11;30.73;;;9.87;;
17235;SDS011;8734;59.272;17.780;2023-04-24T06:14:40;25.97;;;8.67;;
17235;SDS011;8734;59.272;17.780;2023-04-24T06:17:08;27.30;;;9.33;;
17235;SDS011;8734;59.272;17.780;2023-04-24T06:19:38;29.77;;;8.87;;
17235;SDS011;8734;59.272;17.780;2023-04-24T06:22:07;24.93;;;8.03;;
17235;SDS011;8734;59.272;17.780;2023-04-24T06:24:36;28.37;;;8.97;;
17235;SDS011;8734;59.272;17.780;2023-04-24T06:27:04;32.90;;;9.30;;
17235;SDS011;8734;59.272;17.780;2023-04-24T06:29:34;34.13;;;9.33;;
17235;SDS011;8734;59.272;17.780;2023-04-24T06:32:02;30.47;;;9.13;;
17235;SDS011;8734;59.272;17.780;2023-04-24T06:34:31;22.50;;;7.73;;
17235;SDS011;8734;59.272;17.780;2023-04-24T06:37:02;28.90;;;8.27;;
17235;SDS011;8734;59.272;17.780;2023-04-24T06:39:31;31.17;;;8.43;;
17235;SDS011;8734;59.272;17.780;2023-04-24T06:41:59;21.43;;;8.57;;
17235;SDS011;8734;59.272;17.780;2023-04-24T06:44:28;26.87;;;8.50;;
17235;SDS011;8734;59.272;17.780;2023-04-24T06:46:56;23.73;;;7.67;;
17235;SDS011;8734;59.272;17.780;2023-04-24T06:49:24;26.30;;;7.50;;
17235;SDS011;8734;59.272;17.780;2023-04-24T06:51:53;21.03;;;6.87;;
17235;SDS011;8734;59.272;17.780;2023-04-24T06:54:22;21.00;;;7.27;;
17235;SDS011;8734;59.272;17.780;2023-04-24T06:56:50;22.13;;;7.10;;
17235;SDS011;8734;59.272;17.780;2023-04-24T06:59:20;25.20;;;6.93;;
17235;SDS011;8734;59.272;17.780;2023-04-24T07:01:48;19.90;;;6.53;;
17235;SDS011;8734;59.272;17.780;2023-04-24T07:04:20;19.13;;;7.03;;
17235;SDS011;8734;59.272;17.780;2023-04-24T07:06:49;20.47;;;7.33;;
17235;SDS011;8734;59.272;17.780;2023-04-24T07:09:20;17.97;;;5.97;;
17235;SDS011;8734;59.272;17.780;2023-04-24T07:11:52;16.57;;;6.23;;
17235;SDS011;8734;59.272;17.780;2023-04-24T07:14:22;15.17;;;5.53;;
17235;SDS011;8734;59.272;17.780;2023-04-24T07:16:50;16.70;;;5.90;;
17235;SDS011;8734;59.272;17.780;2023-04-24T07:19:19;19.10;;;5.77;;
17235;SDS011;8734;59.272;17.780;2023-04-24T07:21:47;15.57;;;5.87;;
17235;SDS011;8734;59.272;17.780;2023-04-24T07:24:15;15.13;;;5.73;;
17235;SDS011;8734;59.272;17.780;2023-04-24T07:26:48;15.70;;;5.27;;
17235;SDS011;8734;59.272;17.780;2023-04-24T07:29:18;13.33;;;4.60;;
17235;SDS011;8734;59.272;17.780;2023-04-24T07:31:47;13.43;;;5.10;;
17235;SDS011;8734;59.272;17.780;2023-04-24T07:34:15;12.93;;;4.70;;
17235;SDS011;8734;59.272;17.780;2023-04-24T07:36:43;13.27;;;4.57;;
17235;SDS011;8734;59.272;17.780;2023-04-24T07:39:12;16.47;;;5.10;;
17235;SDS011;8734;59.272;17.780;2023-04-24T07:41:41;15.20;;;5.60;;
17235;SDS011;8734;59.272;17.780;2023-04-24T07:44:10;14.07;;;4.97;;
17235;SDS011;8734;59.272;17.780;2023-04-24T07:46:39;13.97;;;5.03;;
17235;SDS011;8734;59.272;17.780;2023-04-24T07:49:08;13.20;;;4.97;;
17235;SDS011;8734;59.272;17.780;2023-04-24T07:51:39;14.03;;;4.33;;
17235;SDS011;8734;59.272;17.780;2023-04-24T07:54:08;12.43;;;5.03;;
17235;SDS011;8734;59.272;17.780;2023-04-24T07:56:36;12.50;;;4.97;;
17235;SDS011;8734;59.272;17.780;2023-04-24T07:59:05;12.87;;;4.43;;
17235;SDS011;8734;59.272;17.780;2023-04-24T08:01:35;12.93;;;5.23;;
17235;SDS011;8734;59.272;17.780;2023-04-24T08:04:04;13.57;;;4.70;;
17235;SDS011;8734;59.272;17.780;2023-04-24T08:06:32;11.30;;;4.50;;
17235;SDS011;8734;59.272;17.780;2023-04-24T08:09:01;11.80;;;4.53;;
17235;SDS011;8734;59.272;17.780;2023-04-24T08:11:30;9.80;;;4.20;;
17235;SDS011;8734;59.272;17.780;2023-04-24T08:13:59;11.23;;;4.67;;
17235;SDS011;8734;59.272;17.780;2023-04-24T08:16:27;11.80;;;4.30;;
17235;SDS011;8734;59.272;17.780;2023-04-24T08:18:57;15.10;;;4.20;;
17235;SDS011;8734;59.272;17.780;2023-04-24T08:21:26;12.37;;;4.37;;
17235;SDS011;8734;59.272;17.780;2023-04-24T08:23:54;10.73;;;3.70;;
17235;SDS011;8734;59.272;17.780;2023-04-24T08:26:22;12.17;;;4.33;;
17235;SDS011;8734;59.272;17.780;2023-04-24T08:28:51;12.67;;;4.17;;
17235;SDS011;8734;59.272;17.780;2023-04-24T08:31:19;9.40;;;4.00;;
17235;SDS011;8734;59.272;17.780;2023-04-24T08:33:49;12.00;;;3.70;;
17235;SDS011;8734;59.272;17.780;2023-04-24T08:36:19;8.87;;;4.23;;
17235;SDS011;8734;59.272;17.780;2023-04-24T08:38:51;10.47;;;3.87;;
17235;SDS011;8734;59.272;17.780;2023-04-24T08:41:20;11.60;;;3.97;;
17235;SDS011;8734;59.272;17.780;2023-04-24T08:43:50;8.03;;;3.70;;
17235;SDS011;8734;59.272;17.780;2023-04-24T08:46:20;7.10;;;4.00;;
17235;SDS011;8734;59.272;17.780;2023-04-24T08:48:50;9.50;;;3.97;;
17235;SDS011;8734;59.272;17.780;2023-04-24T08:51:20;9.50;;;4.00;;
17235;SDS011;8734;59.272;17.780;2023-04-24T08:53:50;14.87;;;3.93;;
17235;SDS011;8734;59.272;17.780;2023-04-24T08:56:21;7.80;;;4.23;;
17235;SDS011;8734;59.272;17.780;2023-04-24T08:58:50;6.30;;;3.27;;
17235;SDS011;8734;59.272;17.780;2023-04-24T09:01:20;8.37;;;3.50;;
17235;SDS011;8734;59.272;17.780;2023-04-24T09:03:48;9.37;;;3.50;;
17235;SDS011;8734;59.272;17.780;2023-04-24T09:06:17;8.53;;;3.70;;
17235;SDS011;8734;59.272;17.780;2023-04-24T09:08:49;7.63;;;3.40;;
17235;SDS011;8734;59.272;17.780;2023-04-24T09:11:20;6.73;;;3.53;;
17235;SDS011;8734;59.272;17.780;2023-04-24T09:13:50;8.70;;;3.43;;
17235;SDS011;8734;59.272;17.780;2023-04-24T09:16:19;8.47;;;3.40;;
17235;SDS011;8734;59.272;17.780;2023-04-24T09:18:49;7.80;;;3.33;;
17235;SDS011;8734;59.272;17.780;2023-04-24T09:21:19;10.90;;;3.13;;
17235;SDS011;8734;59.272;17.780;2023-04-24T09:23:59;8.23;;;2.63;;
17235;SDS011;8734;59.272;17.780;2023-04-24T09:26:30;9.33;;;2.70;;
17235;SDS011;8734;59.272;17.780;2023-04-24T09:29:02;7.07;;;2.40;;
17235;SDS011;8734;59.272;17.780;2023-04-24T09:31:31;12.47;;;5.17;;
17235;SDS011;8734;59.272;17.780;2023-04-24T09:34:00;12.30;;;6.37;;
17235;SDS011;8734;59.272;17.780;2023-04-24T09:36:34;13.03;;;5.40;;
17235;SDS011;8734;59.272;17.780;2023-04-24T09:39:04;7.77;;;4.40;;
17235;SDS011;8734;59.272;17.780;2023-04-24T09:41:34;13.30;;;4.17;;
17235;SDS011;8734;59.272;17.780;2023-04-24T09:44:10;9.80;;;4.60;;
17235;SDS011;8734;59.272;17.780;2023-04-24T09:46:41;6.70;;;3.50;;
17235;SDS011;8734;59.272;17.780;2023-04-24T09:49:12;12.77;;;4.93;;
17235;SDS011;8734;59.272;17.780;2023-04-24T09:51:43;10.47;;;4.93;;
17235;SDS011;8734;59.272;17.780;2023-04-24T09:54:13;10.23;;;4.40;;
17235;SDS011;8734;59.272;17.780;2023-04-24T09:56:44;9.80;;;4.80;;
17235;SDS011;8734;59.272;17.780;2023-04-24T09:59:12;7.80;;;4.00;;
17235;SDS011;8734;59.272;17.780;2023-04-24T10:01:41;6.40;;;3.30;;
17235;SDS011;8734;59.272;17.780;2023-04-24T10:04:17;9.67;;;3.67;;
17235;SDS011;8734;59.272;17.780;2023-04-24T10:06:48;6.87;;;4.17;;
17235;SDS011;8734;59.272;17.780;2023-04-24T10:09:17;10.63;;;3.43;;
17235;SDS011;8734;59.272;17.780;2023-04-24T10:11:47;9.77;;;3.47;;
17235;SDS011;8734;59.272;17.780;2023-04-24T10:14:17;8.03;;;3.47;;
17235;SDS011;8734;59.272;17.780;2023-04-24T10:16:47;7.00;;;3.33;;
17235;SDS011;8734;59.272;17.780;2023-04-24T10:19:16;5.57;;;3.33;;
17235;SDS011;8734;59.272;17.780;2023-04-24T10:21:47;8.60;;;3.30;;
17235;SDS011;8734;59.272;17.780;2023-04-24T10:24:17;7.33;;;3.50;;
17235;SDS011;8734;59.272;17.780;2023-04-24T10:26:47;5.93;;;3.60;;
17235;SDS011;8734;59.272;17.780;2023-04-24T10:29:16;7.73;;;3.20;;
17235;SDS011;8734;59.272;17.780;2023-04-24T10:31:47;7.57;;;3.90;;
17235;SDS011;8734;59.272;17.780;2023-04-24T10:34:16;5.93;;;3.07;;
17235;SDS011;8734;59.272;17.780;2023-04-24T10:36:50;14.00;;;3.70;;
17235;SDS011;8734;59.272;17.780;2023-04-24T10:39:23;8.10;;;3.30;;
17235;SDS011;8734;59.272;17.780;2023-04-24T10:41:53;6.57;;;3.30;;
17235;SDS011;8734;59.272;17.780;2023-04-24T10:44:23;10.57;;;3.67;;
17235;SDS011;8734;59.272;17.780;2023-04-24T10:46:53;17.20;;;4.03;;
17235;SDS011;8734;59.272;17.780;2023-04-24T10:49:32;11.57;;;3.90;;
17235;SDS011;8734;59.272;17.780;2023-04-24T10:52:02;12.90;;;4.37;;
17235;SDS011;8734;59.272;17.780;2023-04-24T10:54:34;9.90;;;3.90;;
17235;SDS011;8734;59.272;17.780;2023-04-24T11:00:15;12.23;;;3.87;;
17235;SDS011;8734;59.272;17.780;2023-04-24T11:02:46;12.07;;;4.00;;
17235;SDS011;8734;59.272;17.780;2023-04-24T11:05:17;13.70;;;4.07;;
17235;SDS011;8734;59.272;17.780;2023-04-24T11:10:43;11.10;;;4.70;;
17235;SDS011;8734;59.272;17.780;2023-04-24T11:13:14;9.27;;;5.40;;
17235;SDS011;8734;59.272;17.780;2023-04-24T11:15:43;10.83;;;4.50;;
17235;SDS011;8734;59.272;17.780;2023-04-24T11:18:14;7.20;;;3.87;;
17235;SDS011;8734;59.272;17.780;2023-04-24T11:20:43;12.67;;;4.17;;
17235;SDS011;8734;59.272;17.780;2023-04-24T11:23:12;8.93;;;4.50;;
17235;SDS011;8734;59.272;17.780;2023-04-24T11:25:42;8.63;;;4.50;;
17235;SDS011;8734;59.272;17.780;2023-04-24T11:28:14;11.77;;;4.13;;
17235;SDS011;8734;59.272;17.780;2023-04-24T11:30:43;4.77;;;3.03;;
17235;SDS011;8734;59.272;17.780;2023-04-24T11:33:12;5.37;;;2.77;;
17235;SDS011;8734;59.272;17.780;2023-04-24T11:35:48;10.63;;;3.00;;
17235;SDS011;8734;59.272;17.780;2023-04-24T11:38:20;9.23;;;3.70;;
17235;SDS011;8734;59.272;17.780;2023-04-24T11:40:50;13.60;;;3.00;;
17235;SDS011;8734;59.272;17.780;2023-04-24T11:43:19;4.67;;;2.80;;
17235;SDS011;8734;59.272;17.780;2023-04-24T11:45:48;4.83;;;2.70;;
17235;SDS011;8734;59.272;17.780;2023-04-24T11:48:18;10.23;;;2.40;;
17235;SDS011;8734;59.272;17.780;2023-04-24T11:50:49;7.47;;;3.10;;
17235;SDS011;8734;59.272;17.780;2023-04-24T11:53:20;7.17;;;3.00;;
17235;SDS011;8734;59.272;17.780;2023-04-24T11:55:48;14.57;;;2.50;;
17235;SDS011;8734;59.272;17.780;2023-04-24T11:58:17;8.00;;;3.50;;
17235;SDS011;8734;59.272;17.780;2023-04-24T12:00:55;6.93;;;3.00;;
17235;SDS011;8734;59.272;17.780;2023-04-24T12:03:24;19.17;;;8.53;;
17235;SDS011;8734;59.272;17.780;2023-04-24T12:06:04;9.33;;;4.50;;
17235;SDS011;8734;59.272;17.780;2023-04-24T12:08:36;11.33;;;3.50;;
17235;SDS011;8734;59.272;17.780;2023-04-24T12:11:05;12.93;;;6.87;;
17235;SDS011;8734;59.272;17.780;2023-04-24T12:13:34;14.73;;;7.80;;
17235;SDS011;8734;59.272;17.780;2023-04-24T12:16:03;17.60;;;7.43;;
17235;SDS011;8734;59.272;17.780;2023-04-24T12:18:32;11.93;;;5.60;;
17235;SDS011;8734;59.272;17.780;2023-04-24T12:21:14;7.90;;;3.93;;
17235;SDS011;8734;59.272;17.780;2023-04-24T12:23:47;9.90;;;3.73;;
17235;SDS011;8734;59.272;17.780;2023-04-24T12:26:17;7.80;;;3.20;;
17235;SDS011;8734;59.272;17.780;2023-04-24T12:28:47;6.73;;;3.60;;
17235;SDS011;8734;59.272;17.780;2023-04-24T12:31:16;9.27;;;4.00;;
17235;SDS011;8734;59.272;17.780;2023-04-24T12:33:45;16.37;;;4.13;;
17235;SDS011;8734;59.272;17.780;2023-04-24T12:36:13;11.03;;;3.37;;
17235;SDS011;8734;59.272;17.780;2023-04-24T12:38:43;12.47;;;3.30;;
17235;SDS011;8734;59.272;17.780;2023-04-24T12:41:14;13.93;;;3.40;;
17235;SDS011;8734;59.272;17.780;2023-04-24T12:43:51;10.23;;;4.83;;
17235;SDS011;8734;59.272;17.780;2023-04-24T12:46:22;13.13;;;3.60;;
17235;SDS011;8734;59.272;17.780;2023-04-24T12:48:50;10.03;;;3.93;;
17235;SDS011;8734;59.272;17.780;2023-04-24T12:51:19;6.77;;;3.53;;
17235;SDS011;8734;59.272;17.780;2023-04-24T12:53:47;8.03;;;4.30;;
17235;SDS011;8734;59.272;17.780;2023-04-24T12:56:17;8.87;;;3.87;;
17235;SDS011;8734;59.272;17.780;2023-04-24T12:58:45;10.30;;;3.73;;
17235;SDS011;8734;59.272;17.780;2023-04-24T13:01:14;39.93;;;15.33;;
17235;SDS011;8734;59.272;17.780;2023-04-24T13:03:42;17.37;;;7.83;;
17235;SDS011;8734;59.272;17.780;2023-04-24T13:06:11;49.00;;;22.63;;
17235;SDS011;8734;59.272;17.780;2023-04-24T13:08:40;14.50;;;6.33;;
17235;SDS011;8734;59.272;17.780;2023-04-24T13:11:08;12.37;;;4.37;;
17235;SDS011;8734;59.272;17.780;2023-04-24T13:13:38;12.70;;;4.20;;
17235;SDS011;8734;59.272;17.780;2023-04-24T13:16:07;40.67;;;17.93;;
17235;SDS011;8734;59.272;17.780;2023-04-24T13:18:35;22.17;;;9.63;;
17235;SDS011;8734;59.272;17.780;2023-04-24T13:21:03;157.63;;;53.70;;
17235;SDS011;8734;59.272;17.780;2023-04-24T13:23:32;295.33;;;106.70;;
17235;SDS011;8734;59.272;17.780;2023-04-24T13:26:01;120.30;;;45.77;;
17235;SDS011;8734;59.272;17.780;2023-04-24T13:28:29;110.43;;;39.90;;
17235;SDS011;8734;59.272;17.780;2023-04-24T13:30:59;20.40;;;9.03;;
17235;SDS011;8734;59.272;17.780;2023-04-24T13:33:28;12.37;;;4.70;;
17235;SDS011;8734;59.272;17.780;2023-04-24T13:35:57;13.13;;;4.60;;
17235;SDS011;8734;59.272;17.780;2023-04-24T13:38:25;11.67;;;4.10;;
17235;SDS011;8734;59.272;17.780;2023-04-24T13:40:53;13.60;;;4.20;;
17235;SDS011;8734;59.272;17.780;2023-04-24T13:43:21;7.40;;;4.20;;
17235;SDS011;8734;59.272;17.780;2023-04-24T13:45:49;14.40;;;4.00;;
17235;SDS011;8734;59.272;17.780;2023-04-24T13:48:20;7.97;;;3.90;;
17235;SDS011;8734;59.272;17.780;2023-04-24T13:50:48;12.23;;;3.70;;
17235;SDS011;8734;59.272;17.780;2023-04-24T13:53:17;13.67;;;4.07;;
17235;SDS011;8734;59.272;17.780;2023-04-24T13:55:45;7.10;;;3.63;;
17235;SDS011;8734;59.272;17.780;2023-04-24T13:58:13;13.93;;;4.17;;
17235;SDS011;8734;59.272;17.780;2023-04-24T14:00:41;11.20;;;3.87;;
17235;SDS011;8734;59.272;17.780;2023-04-24T14:03:10;7.00;;;3.60;;
17235;SDS011;8734;59.272;17.780;2023-04-24T14:05:40;9.23;;;4.10;;
17235;SDS011;8734;59.272;17.780;2023-04-24T14:08:08;13.00;;;4.40;;
17235;SDS011;8734;59.272;17.780;2023-04-24T14:10:37;11.17;;;4.47;;
17235;SDS011;8734;59.272;17.780;2023-04-24T14:13:05;7.60;;;3.47;;
17235;SDS011;8734;59.272;17.780;2023-04-24T14:15:33;13.27;;;4.10;;
17235;SDS011;8734;59.272;17.780;2023-04-24T14:18:04;14.07;;;4.70;;
17235;SDS011;8734;59.272;17.780;2023-04-24T14:20:32;10.17;;;3.53;;
17235;SDS011;8734;59.272;17.780;2023-04-24T14:23:03;13.67;;;3.60;;
17235;SDS011;8734;59.272;17.780;2023-04-24T14:25:31;17.43;;;4.07;;
17235;SDS011;8734;59.272;17.780;2023-04-24T14:28:00;11.20;;;3.50;;
17235;SDS011;8734;59.272;17.780;2023-04-24T14:30:28;11.97;;;4.40;;
17235;SDS011;8734;59.272;17.780;2023-04-24T14:32:57;12.73;;;3.90;;
17235;SDS011;8734;59.272;17.780;2023-04-24T14:35:26;6.03;;;3.50;;
17235;SDS011;8734;59.272;17.780;2023-04-24T14:37:56;9.43;;;3.63;;
17235;SDS011;8734;59.272;17.780;2023-04-24T14:40:27;9.00;;;3.90;;
17235;SDS011;8734;59.272;17.780;2023-04-24T14:43:16;14.83;;;4.23;;
17235;SDS011;8734;59.272;17.780;2023-04-24T14:45:44;11.83;;;3.47;;
17235;SDS011;8734;59.272;17.780;2023-04-24T14:48:13;17.83;;;3.90;;
17235;SDS011;8734;59.272;17.780;2023-04-24T14:50:42;9.27;;;3.97;;
17235;SDS011;8734;59.272;17.780;2023-04-24T14:53:11;11.23;;;4.10;;
17235;SDS011;8734;59.272;17.780;2023-04-24T14:55:41;8.17;;;3.97;;
17235;SDS011;8734;59.272;17.780;2023-04-24T14:58:09;10.47;;;3.87;;